Terminal Aerodrome Forecast
Issued by NWS

Home | Current Version | Previous Version | Text Only | Print | Product List | Glossary On
Versions: 1 2 3 4 5 6 7 8 9 10 11 12 13 14 15 16 17 18 19 20 21 22 23 24 25 26 27 28 29 30 31 32 33 34
287
FTUS45 KBOU 211756
TAFAPA
TAF
KAPA 211756Z 2118/2218 02007KT P6SM SCT130
     FM212200 04007KT P6SM VCTS SCT090CB BKN130
      TEMPO 2123/2203 VRB15G25KT BKN090CB
     FM220300 26011KT P6SM SCT090 BKN130
     FM220700 20007KT P6SM BKN130=

USA.gov is the U.S. government's official web portal to all federal, state and local government web resources and services.